sensor_id;sensor_type;location;lat;lon;timestamp;P1;durP1;ratioP1;P2;durP2;ratioP2
28802;SDS011;15949;55.656;37.422;2023-09-08T00:02:01;2.63;;;1.50;;
28802;SDS011;15949;55.656;37.422;2023-09-08T00:07:07;3.95;;;1.70;;
28802;SDS011;15949;55.656;37.422;2023-09-08T00:12:13;5.07;;;1.60;;
28802;SDS011;15949;55.656;37.422;2023-09-08T00:17:19;4.30;;;1.75;;
28802;SDS011;15949;55.656;37.422;2023-09-08T00:22:24;4.05;;;1.60;;
28802;SDS011;15949;55.656;37.422;2023-09-08T00:27:30;2.83;;;1.50;;
28802;SDS011;15949;55.656;37.422;2023-09-08T00:32:36;2.15;;;1.65;;
28802;SDS011;15949;55.656;37.422;2023-09-08T00:37:42;3.85;;;1.33;;
28802;SDS011;15949;55.656;37.422;2023-09-08T00:42:48;4.28;;;1.67;;
28802;SDS011;15949;55.656;37.422;2023-09-08T00:47:53;5.20;;;1.60;;
28802;SDS011;15949;55.656;37.422;2023-09-08T00:52:59;3.53;;;1.50;;
28802;SDS011;15949;55.656;37.422;2023-09-08T00:58:05;3.17;;;1.50;;
28802;SDS011;15949;55.656;37.422;2023-09-08T01:03:11;6.57;;;1.65;;
28802;SDS011;15949;55.656;37.422;2023-09-08T01:08:17;3.03;;;1.63;;
28802;SDS011;15949;55.656;37.422;2023-09-08T01:13:23;2.08;;;1.60;;
28802;SDS011;15949;55.656;37.422;2023-09-08T01:18:29;5.63;;;1.60;;
28802;SDS011;15949;55.656;37.422;2023-09-08T01:28:48;3.15;;;1.70;;
28802;SDS011;15949;55.656;37.422;2023-09-08T01:33:54;5.30;;;3.30;;
28802;SDS011;15949;55.656;37.422;2023-09-08T01:39:01;3.65;;;2.00;;
28802;SDS011;15949;55.656;37.422;2023-09-08T01:44:07;5.72;;;1.50;;
28802;SDS011;15949;55.656;37.422;2023-09-08T01:49:13;3.90;;;1.73;;
28802;SDS011;15949;55.656;37.422;2023-09-08T01:54:18;5.05;;;1.95;;
28802;SDS011;15949;55.656;37.422;2023-09-08T01:59:24;4.25;;;1.80;;
28802;SDS011;15949;55.656;37.422;2023-09-08T02:04:30;2.78;;;1.70;;
28802;SDS011;15949;55.656;37.422;2023-09-08T02:09:36;2.42;;;1.42;;
28802;SDS011;15949;55.656;37.422;2023-09-08T02:14:43;2.55;;;1.65;;
28802;SDS011;15949;55.656;37.422;2023-09-08T02:19:48;2.20;;;1.55;;
28802;SDS011;15949;55.656;37.422;2023-09-08T02:24:54;3.10;;;1.70;;
28802;SDS011;15949;55.656;37.422;2023-09-08T02:30:01;4.25;;;1.80;;
28802;SDS011;15949;55.656;37.422;2023-09-08T02:35:07;5.35;;;1.60;;
28802;SDS011;15949;55.656;37.422;2023-09-08T02:40:13;2.13;;;1.48;;
28802;SDS011;15949;55.656;37.422;2023-09-08T02:45:19;3.85;;;1.65;;
28802;SDS011;15949;55.656;37.422;2023-09-08T02:50:25;3.08;;;1.77;;
28802;SDS011;15949;55.656;37.422;2023-09-08T02:55:30;2.90;;;1.70;;
28802;SDS011;15949;55.656;37.422;2023-09-08T03:00:36;3.53;;;1.63;;
28802;SDS011;15949;55.656;37.422;2023-09-08T03:05:41;3.50;;;1.70;;
28802;SDS011;15949;55.656;37.422;2023-09-08T03:10:47;2.75;;;1.67;;
28802;SDS011;15949;55.656;37.422;2023-09-08T03:15:55;4.60;;;1.48;;
28802;SDS011;15949;55.656;37.422;2023-09-08T03:21:02;4.60;;;1.60;;
28802;SDS011;15949;55.656;37.422;2023-09-08T03:26:14;2.65;;;1.80;;
28802;SDS011;15949;55.656;37.422;2023-09-08T03:31:19;4.22;;;1.80;;
28802;SDS011;15949;55.656;37.422;2023-09-08T03:36:25;4.25;;;1.65;;
28802;SDS011;15949;55.656;37.422;2023-09-08T03:41:30;3.83;;;1.60;;
28802;SDS011;15949;55.656;37.422;2023-09-08T03:46:36;3.92;;;1.60;;
28802;SDS011;15949;55.656;37.422;2023-09-08T03:51:42;3.10;;;1.83;;
28802;SDS011;15949;55.656;37.422;2023-09-08T03:56:47;2.42;;;1.73;;
28802;SDS011;15949;55.656;37.422;2023-09-08T04:01:53;5.70;;;1.60;;
28802;SDS011;15949;55.656;37.422;2023-09-08T04:06:59;2.28;;;1.73;;
28802;SDS011;15949;55.656;37.422;2023-09-08T04:12:04;4.47;;;1.55;;
28802;SDS011;15949;55.656;37.422;2023-09-08T04:17:10;4.35;;;1.80;;
28802;SDS011;15949;55.656;37.422;2023-09-08T04:22:16;3.22;;;1.83;;
28802;SDS011;15949;55.656;37.422;2023-09-08T04:27:22;4.05;;;1.75;;
28802;SDS011;15949;55.656;37.422;2023-09-08T04:32:28;6.28;;;1.80;;
28802;SDS011;15949;55.656;37.422;2023-09-08T04:37:33;7.68;;;1.92;;
28802;SDS011;15949;55.656;37.422;2023-09-08T04:42:39;3.63;;;1.70;;
28802;SDS011;15949;55.656;37.422;2023-09-08T04:47:45;5.07;;;1.65;;
28802;SDS011;15949;55.656;37.422;2023-09-08T04:52:52;3.80;;;1.70;;
28802;SDS011;15949;55.656;37.422;2023-09-08T04:57:57;6.15;;;1.45;;
28802;SDS011;15949;55.656;37.422;2023-09-08T05:03:03;4.20;;;1.30;;
28802;SDS011;15949;55.656;37.422;2023-09-08T05:08:09;3.08;;;1.45;;
28802;SDS011;15949;55.656;37.422;2023-09-08T05:13:16;4.60;;;1.35;;
28802;SDS011;15949;55.656;37.422;2023-09-08T05:18:22;3.70;;;1.35;;
28802;SDS011;15949;55.656;37.422;2023-09-08T05:23:29;5.10;;;1.45;;
28802;SDS011;15949;55.656;37.422;2023-09-08T05:28:35;1.88;;;1.10;;
28802;SDS011;15949;55.656;37.422;2023-09-08T05:33:40;4.18;;;1.20;;
28802;SDS011;15949;55.656;37.422;2023-09-08T05:38:46;3.85;;;1.30;;
28802;SDS011;15949;55.656;37.422;2023-09-08T05:43:52;4.45;;;1.30;;
28802;SDS011;15949;55.656;37.422;2023-09-08T05:48:57;4.80;;;1.40;;
28802;SDS011;15949;55.656;37.422;2023-09-08T05:54:03;2.58;;;1.23;;
28802;SDS011;15949;55.656;37.422;2023-09-08T05:59:09;1.67;;;1.23;;
28802;SDS011;15949;55.656;37.422;2023-09-08T06:04:14;4.63;;;1.52;;
28802;SDS011;15949;55.656;37.422;2023-09-08T06:09:20;3.97;;;1.60;;
28802;SDS011;15949;55.656;37.422;2023-09-08T06:14:26;2.13;;;1.50;;
28802;SDS011;15949;55.656;37.422;2023-09-08T06:19:31;3.92;;;1.35;;
28802;SDS011;15949;55.656;37.422;2023-09-08T06:24:37;1.85;;;1.10;;
28802;SDS011;15949;55.656;37.422;2023-09-08T06:29:43;5.38;;;1.23;;
28802;SDS011;15949;55.656;37.422;2023-09-08T06:34:49;4.57;;;1.48;;
28802;SDS011;15949;55.656;37.422;2023-09-08T06:39:54;1.50;;;1.10;;
28802;SDS011;15949;55.656;37.422;2023-09-08T06:45:00;2.70;;;1.20;;
28802;SDS011;15949;55.656;37.422;2023-09-08T06:50:06;8.40;;;1.40;;
28802;SDS011;15949;55.656;37.422;2023-09-08T06:55:12;5.28;;;1.30;;
28802;SDS011;15949;55.656;37.422;2023-09-08T07:00:18;2.63;;;1.40;;
28802;SDS011;15949;55.656;37.422;2023-09-08T07:05:25;2.45;;;1.38;;
28802;SDS011;15949;55.656;37.422;2023-09-08T07:10:31;5.72;;;1.40;;
28802;SDS011;15949;55.656;37.422;2023-09-08T07:15:36;3.38;;;1.30;;
28802;SDS011;15949;55.656;37.422;2023-09-08T07:20:46;3.10;;;1.27;;
28802;SDS011;15949;55.656;37.422;2023-09-08T07:25:54;5.38;;;1.25;;
28802;SDS011;15949;55.656;37.422;2023-09-08T07:31:01;4.10;;;1.50;;
28802;SDS011;15949;55.656;37.422;2023-09-08T07:36:08;5.35;;;1.48;;
28802;SDS011;15949;55.656;37.422;2023-09-08T07:41:14;8.95;;;1.40;;
28802;SDS011;15949;55.656;37.422;2023-09-08T07:46:20;4.90;;;1.30;;
28802;SDS011;15949;55.656;37.422;2023-09-08T07:51:26;6.70;;;1.38;;
28802;SDS011;15949;55.656;37.422;2023-09-08T07:56:32;6.63;;;1.30;;
28802;SDS011;15949;55.656;37.422;2023-09-08T08:01:38;3.33;;;1.20;;
28802;SDS011;15949;55.656;37.422;2023-09-08T08:06:44;5.32;;;1.27;;
28802;SDS011;15949;55.656;37.422;2023-09-08T08:11:50;4.28;;;1.20;;
28802;SDS011;15949;55.656;37.422;2023-09-08T08:16:55;8.35;;;1.25;;
28802;SDS011;15949;55.656;37.422;2023-09-08T08:22:01;4.63;;;1.20;;
28802;SDS011;15949;55.656;37.422;2023-09-08T08:27:06;3.00;;;1.25;;
28802;SDS011;15949;55.656;37.422;2023-09-08T08:32:12;7.63;;;1.42;;
28802;SDS011;15949;55.656;37.422;2023-09-08T08:37:18;2.20;;;1.13;;
28802;SDS011;15949;55.656;37.422;2023-09-08T08:42:23;2.17;;;1.00;;
28802;SDS011;15949;55.656;37.422;2023-09-08T08:47:36;2.03;;;1.10;;
28802;SDS011;15949;55.656;37.422;2023-09-08T08:52:42;5.47;;;1.20;;
28802;SDS011;15949;55.656;37.422;2023-09-08T08:57:48;4.93;;;1.05;;
28802;SDS011;15949;55.656;37.422;2023-09-08T09:02:55;4.78;;;1.08;;
28802;SDS011;15949;55.656;37.422;2023-09-08T09:08:03;9.32;;;1.33;;
28802;SDS011;15949;55.656;37.422;2023-09-08T09:13:10;4.97;;;1.42;;
28802;SDS011;15949;55.656;37.422;2023-09-08T09:18:15;5.18;;;1.10;;
28802;SDS011;15949;55.656;37.422;2023-09-08T09:28:34;3.05;;;1.27;;
28802;SDS011;15949;55.656;37.422;2023-09-08T09:34:02;5.90;;;1.30;;
28802;SDS011;15949;55.656;37.422;2023-09-08T09:39:12;4.57;;;1.60;;
28802;SDS011;15949;55.656;37.422;2023-09-08T09:44:17;6.72;;;1.23;;
28802;SDS011;15949;55.656;37.422;2023-09-08T09:49:23;5.72;;;1.40;;
28802;SDS011;15949;55.656;37.422;2023-09-08T09:54:32;4.97;;;1.35;;
28802;SDS011;15949;55.656;37.422;2023-09-08T09:59:37;8.10;;;1.70;;
28802;SDS011;15949;55.656;37.422;2023-09-08T10:04:45;5.93;;;1.45;;
28802;SDS011;15949;55.656;37.422;2023-09-08T10:09:53;9.18;;;1.35;;
28802;SDS011;15949;55.656;37.422;2023-09-08T10:14:58;3.72;;;1.33;;
28802;SDS011;15949;55.656;37.422;2023-09-08T10:20:05;9.38;;;1.40;;
28802;SDS011;15949;55.656;37.422;2023-09-08T10:25:16;7.28;;;1.50;;
28802;SDS011;15949;55.656;37.422;2023-09-08T10:30:24;7.85;;;1.40;;
28802;SDS011;15949;55.656;37.422;2023-09-08T10:35:30;8.38;;;1.40;;
28802;SDS011;15949;55.656;37.422;2023-09-08T10:40:36;4.32;;;1.30;;
28802;SDS011;15949;55.656;37.422;2023-09-08T10:45:42;7.07;;;1.27;;
28802;SDS011;15949;55.656;37.422;2023-09-08T10:50:48;7.15;;;1.38;;
28802;SDS011;15949;55.656;37.422;2023-09-08T10:55:53;5.20;;;1.30;;
28802;SDS011;15949;55.656;37.422;2023-09-08T11:01:00;4.65;;;1.17;;
28802;SDS011;15949;55.656;37.422;2023-09-08T11:06:07;5.15;;;1.50;;
28802;SDS011;15949;55.656;37.422;2023-09-08T11:11:13;3.67;;;1.30;;
28802;SDS011;15949;55.656;37.422;2023-09-08T11:16:20;7.07;;;1.30;;
28802;SDS011;15949;55.656;37.422;2023-09-08T11:21:31;5.50;;;1.42;;
28802;SDS011;15949;55.656;37.422;2023-09-08T11:26:40;2.75;;;1.10;;
28802;SDS011;15949;55.656;37.422;2023-09-08T11:31:51;5.13;;;1.35;;
28802;SDS011;15949;55.656;37.422;2023-09-08T11:36:57;4.60;;;1.40;;
28802;SDS011;15949;55.656;37.422;2023-09-08T11:42:03;7.03;;;1.50;;
28802;SDS011;15949;55.656;37.422;2023-09-08T11:47:09;7.63;;;1.70;;
28802;SDS011;15949;55.656;37.422;2023-09-08T11:52:15;7.93;;;1.23;;
28802;SDS011;15949;55.656;37.422;2023-09-08T11:57:21;3.70;;;1.40;;
28802;SDS011;15949;55.656;37.422;2023-09-08T12:02:27;4.60;;;1.25;;
28802;SDS011;15949;55.656;37.422;2023-09-08T12:07:32;5.10;;;1.45;;
28802;SDS011;15949;55.656;37.422;2023-09-08T12:12:42;9.55;;;1.45;;
28802;SDS011;15949;55.656;37.422;2023-09-08T12:18:01;3.67;;;1.27;;
28802;SDS011;15949;55.656;37.422;2023-09-08T12:23:18;2.97;;;1.20;;
28802;SDS011;15949;55.656;37.422;2023-09-08T12:28:25;4.93;;;1.30;;
28802;SDS011;15949;55.656;37.422;2023-09-08T12:33:36;8.02;;;1.40;;
28802;SDS011;15949;55.656;37.422;2023-09-08T12:38:46;5.88;;;1.20;;
28802;SDS011;15949;55.656;37.422;2023-09-08T12:43:53;3.08;;;1.20;;
28802;SDS011;15949;55.656;37.422;2023-09-08T12:48:58;3.50;;;1.20;;
28802;SDS011;15949;55.656;37.422;2023-09-08T12:54:04;4.45;;;1.35;;
28802;SDS011;15949;55.656;37.422;2023-09-08T12:59:10;4.20;;;1.70;;
28802;SDS011;15949;55.656;37.422;2023-09-08T13:04:15;5.03;;;1.30;;
28802;SDS011;15949;55.656;37.422;2023-09-08T13:09:21;5.88;;;1.40;;
28802;SDS011;15949;55.656;37.422;2023-09-08T13:14:27;6.32;;;1.40;;
28802;SDS011;15949;55.656;37.422;2023-09-08T13:19:32;4.68;;;1.48;;
28802;SDS011;15949;55.656;37.422;2023-09-08T13:24:38;7.38;;;1.10;;
28802;SDS011;15949;55.656;37.422;2023-09-08T13:29:44;3.60;;;1.23;;
28802;SDS011;15949;55.656;37.422;2023-09-08T13:34:50;4.07;;;1.10;;
28802;SDS011;15949;55.656;37.422;2023-09-08T13:39:55;3.47;;;1.13;;
28802;SDS011;15949;55.656;37.422;2023-09-08T13:45:02;6.22;;;1.45;;
28802;SDS011;15949;55.656;37.422;2023-09-08T13:50:08;4.57;;;1.08;;
28802;SDS011;15949;55.656;37.422;2023-09-08T13:55:14;4.97;;;1.88;;
28802;SDS011;15949;55.656;37.422;2023-09-08T14:00:20;3.78;;;1.20;;
28802;SDS011;15949;55.656;37.422;2023-09-08T14:05:25;5.20;;;1.10;;
28802;SDS011;15949;55.656;37.422;2023-09-08T14:10:31;5.95;;;1.17;;
28802;SDS011;15949;55.656;37.422;2023-09-08T14:15:37;10.57;;;1.17;;
28802;SDS011;15949;55.656;37.422;2023-09-08T14:20:42;4.93;;;1.00;;
28802;SDS011;15949;55.656;37.422;2023-09-08T14:25:48;3.50;;;1.10;;
28802;SDS011;15949;55.656;37.422;2023-09-08T14:30:54;2.85;;;1.05;;
28802;SDS011;15949;55.656;37.422;2023-09-08T14:35:59;6.38;;;1.10;;
28802;SDS011;15949;55.656;37.422;2023-09-08T14:41:05;2.53;;;0.80;;
28802;SDS011;15949;55.656;37.422;2023-09-08T14:46:11;6.13;;;1.17;;
28802;SDS011;15949;55.656;37.422;2023-09-08T14:51:16;3.40;;;1.10;;
28802;SDS011;15949;55.656;37.422;2023-09-08T14:56:22;3.40;;;1.10;;
28802;SDS011;15949;55.656;37.422;2023-09-08T15:01:28;5.22;;;1.45;;
28802;SDS011;15949;55.656;37.422;2023-09-08T15:06:33;5.70;;;1.33;;
28802;SDS011;15949;55.656;37.422;2023-09-08T15:11:39;4.22;;;1.42;;
28802;SDS011;15949;55.656;37.422;2023-09-08T15:16:45;4.75;;;1.40;;
28802;SDS011;15949;55.656;37.422;2023-09-08T15:21:51;11.27;;;1.63;;
28802;SDS011;15949;55.656;37.422;2023-09-08T15:26:57;5.57;;;2.00;;
28802;SDS011;15949;55.656;37.422;2023-09-08T15:32:02;5.72;;;1.75;;
28802;SDS011;15949;55.656;37.422;2023-09-08T15:37:08;4.82;;;1.80;;
28802;SDS011;15949;55.656;37.422;2023-09-08T15:42:14;4.18;;;1.65;;
28802;SDS011;15949;55.656;37.422;2023-09-08T15:47:20;10.63;;;2.10;;
28802;SDS011;15949;55.656;37.422;2023-09-08T15:52:25;6.85;;;2.22;;
28802;SDS011;15949;55.656;37.422;2023-09-08T15:57:31;7.80;;;2.60;;
28802;SDS011;15949;55.656;37.422;2023-09-08T16:02:37;7.72;;;2.65;;
28802;SDS011;15949;55.656;37.422;2023-09-08T16:07:42;10.07;;;2.50;;
28802;SDS011;15949;55.656;37.422;2023-09-08T16:12:49;6.60;;;1.92;;
28802;SDS011;15949;55.656;37.422;2023-09-08T16:17:56;5.50;;;2.10;;
28802;SDS011;15949;55.656;37.422;2023-09-08T16:23:02;5.35;;;2.10;;
28802;SDS011;15949;55.656;37.422;2023-09-08T16:28:09;6.60;;;2.22;;
28802;SDS011;15949;55.656;37.422;2023-09-08T16:33:15;3.38;;;2.00;;
28802;SDS011;15949;55.656;37.422;2023-09-08T16:38:20;4.05;;;2.05;;
28802;SDS011;15949;55.656;37.422;2023-09-08T16:43:26;2.92;;;1.77;;
28802;SDS011;15949;55.656;37.422;2023-09-08T16:48:32;7.50;;;2.58;;
28802;SDS011;15949;55.656;37.422;2023-09-08T16:53:37;4.80;;;2.60;;
28802;SDS011;15949;55.656;37.422;2023-09-08T16:58:43;4.10;;;2.10;;
28802;SDS011;15949;55.656;37.422;2023-09-08T17:03:49;6.25;;;2.40;;
28802;SDS011;15949;55.656;37.422;2023-09-08T17:08:54;7.60;;;2.63;;
28802;SDS011;15949;55.656;37.422;2023-09-08T17:14:00;12.88;;;3.28;;
28802;SDS011;15949;55.656;37.422;2023-09-08T17:19:06;8.07;;;3.80;;
28802;SDS011;15949;55.656;37.422;2023-09-08T17:24:11;8.60;;;3.05;;
28802;SDS011;15949;55.656;37.422;2023-09-08T17:29:17;4.90;;;2.60;;
28802;SDS011;15949;55.656;37.422;2023-09-08T17:34:23;3.92;;;2.08;;
28802;SDS011;15949;55.656;37.422;2023-09-08T17:39:29;3.75;;;2.20;;
28802;SDS011;15949;55.656;37.422;2023-09-08T17:44:35;6.22;;;2.33;;
28802;SDS011;15949;55.656;37.422;2023-09-08T17:49:41;6.38;;;2.72;;
28802;SDS011;15949;55.656;37.422;2023-09-08T17:54:48;6.35;;;2.80;;
28802;SDS011;15949;55.656;37.422;2023-09-08T17:59:53;5.25;;;2.80;;
28802;SDS011;15949;55.656;37.422;2023-09-08T18:04:59;5.88;;;3.20;;
28802;SDS011;15949;55.656;37.422;2023-09-08T18:10:05;7.13;;;2.92;;
28802;SDS011;15949;55.656;37.422;2023-09-08T18:15:12;8.07;;;2.92;;
28802;SDS011;15949;55.656;37.422;2023-09-08T18:20:17;7.00;;;2.90;;
28802;SDS011;15949;55.656;37.422;2023-09-08T18:25:23;7.55;;;3.17;;
28802;SDS011;15949;55.656;37.422;2023-09-08T18:30:29;7.13;;;3.20;;
28802;SDS011;15949;55.656;37.422;2023-09-08T18:35:35;8.02;;;2.22;;
28802;SDS011;15949;55.656;37.422;2023-09-08T18:40:44;5.20;;;2.20;;
28802;SDS011;15949;55.656;37.422;2023-09-08T18:45:50;3.92;;;1.60;;
28802;SDS011;15949;55.656;37.422;2023-09-08T18:50:56;4.60;;;1.52;;
28802;SDS011;15949;55.656;37.422;2023-09-08T18:56:02;5.65;;;1.40;;
28802;SDS011;15949;55.656;37.422;2023-09-08T19:01:08;5.78;;;1.85;;
28802;SDS011;15949;55.656;37.422;2023-09-08T19:06:14;6.70;;;1.70;;
28802;SDS011;15949;55.656;37.422;2023-09-08T19:11:21;4.25;;;1.67;;
28802;SDS011;15949;55.656;37.422;2023-09-08T19:16:26;4.40;;;1.40;;
28802;SDS011;15949;55.656;37.422;2023-09-08T19:21:32;6.18;;;1.55;;
28802;SDS011;15949;55.656;37.422;2023-09-08T19:26:38;3.63;;;1.60;;
28802;SDS011;15949;55.656;37.422;2023-09-08T19:31:43;4.22;;;1.30;;
28802;SDS011;15949;55.656;37.422;2023-09-08T19:36:49;2.17;;;1.23;;
28802;SDS011;15949;55.656;37.422;2023-09-08T19:41:55;4.95;;;1.30;;
28802;SDS011;15949;55.656;37.422;2023-09-08T19:47:00;2.70;;;1.20;;
28802;SDS011;15949;55.656;37.422;2023-09-08T19:52:06;4.97;;;1.40;;
28802;SDS011;15949;55.656;37.422;2023-09-08T19:57:11;5.03;;;1.33;;
28802;SDS011;15949;55.656;37.422;2023-09-08T20:02:17;7.95;;;1.30;;
28802;SDS011;15949;55.656;37.422;2023-09-08T20:07:23;1.85;;;1.20;;
28802;SDS011;15949;55.656;37.422;2023-09-08T20:12:29;2.80;;;1.20;;
28802;SDS011;15949;55.656;37.422;2023-09-08T20:17:35;4.43;;;1.10;;
28802;SDS011;15949;55.656;37.422;2023-09-08T20:22:41;3.42;;;1.10;;
28802;SDS011;15949;55.656;37.422;2023-09-08T20:27:46;3.38;;;1.10;;
28802;SDS011;15949;55.656;37.422;2023-09-08T20:32:52;1.52;;;1.10;;
28802;SDS011;15949;55.656;37.422;2023-09-08T20:37:57;5.68;;;1.20;;
28802;SDS011;15949;55.656;37.422;2023-09-08T20:43:03;3.40;;;1.10;;
28802;SDS011;15949;55.656;37.422;2023-09-08T20:48:09;2.40;;;1.15;;
28802;SDS011;15949;55.656;37.422;2023-09-08T20:53:15;3.13;;;1.17;;
28802;SDS011;15949;55.656;37.422;2023-09-08T20:58:21;3.92;;;1.20;;
28802;SDS011;15949;55.656;37.422;2023-09-08T21:03:27;2.55;;;1.05;;
28802;SDS011;15949;55.656;37.422;2023-09-08T21:08:33;3.92;;;1.25;;
28802;SDS011;15949;55.656;37.422;2023-09-08T21:13:38;5.07;;;0.93;;
28802;SDS011;15949;55.656;37.422;2023-09-08T21:18:44;4.18;;;1.10;;
28802;SDS011;15949;55.656;37.422;2023-09-08T21:23:49;3.65;;;1.10;;
28802;SDS011;15949;55.656;37.422;2023-09-08T21:28:55;2.03;;;1.10;;
28802;SDS011;15949;55.656;37.422;2023-09-08T21:34:01;2.72;;;1.10;;
28802;SDS011;15949;55.656;37.422;2023-09-08T21:39:06;3.05;;;1.10;;
28802;SDS011;15949;55.656;37.422;2023-09-08T21:44:12;3.78;;;1.00;;
28802;SDS011;15949;55.656;37.422;2023-09-08T21:49:18;2.17;;;1.05;;
28802;SDS011;15949;55.656;37.422;2023-09-08T21:54:24;4.20;;;1.00;;
28802;SDS011;15949;55.656;37.422;2023-09-08T21:59:30;3.60;;;1.08;;
28802;SDS011;15949;55.656;37.422;2023-09-08T22:04:35;3.30;;;1.30;;
28802;SDS011;15949;55.656;37.422;2023-09-08T22:09:41;1.23;;;0.85;;
28802;SDS011;15949;55.656;37.422;2023-09-08T22:14:49;2.58;;;1.30;;
28802;SDS011;15949;55.656;37.422;2023-09-08T22:19:55;1.52;;;1.05;;
28802;SDS011;15949;55.656;37.422;2023-09-08T22:25:01;3.08;;;1.30;;
28802;SDS011;15949;55.656;37.422;2023-09-08T22:30:06;3.30;;;1.30;;
28802;SDS011;15949;55.656;37.422;2023-09-08T22:35:13;2.58;;;1.20;;
28802;SDS011;15949;55.656;37.422;2023-09-08T22:40:19;3.33;;;1.33;;
28802;SDS011;15949;55.656;37.422;2023-09-08T22:45:24;3.25;;;1.45;;
28802;SDS011;15949;55.656;37.422;2023-09-08T22:50:31;1.92;;;1.33;;
28802;SDS011;15949;55.656;37.422;2023-09-08T22:55:38;2.22;;;1.20;;
28802;SDS011;15949;55.656;37.422;2023-09-08T23:00:44;2.38;;;1.10;;
28802;SDS011;15949;55.656;37.422;2023-09-08T23:05:50;4.60;;;1.13;;
28802;SDS011;15949;55.656;37.422;2023-09-08T23:10:56;1.10;;;1.00;;
28802;SDS011;15949;55.656;37.422;2023-09-08T23:16:01;2.50;;;1.33;;
28802;SDS011;15949;55.656;37.422;2023-09-08T23:21:08;2.83;;;1.33;;
28802;SDS011;15949;55.656;37.422;2023-09-08T23:26:14;2.25;;;1.30;;
28802;SDS011;15949;55.656;37.422;2023-09-08T23:31:20;2.33;;;1.50;;
28802;SDS011;15949;55.656;37.422;2023-09-08T23:36:26;4.63;;;1.52;;
28802;SDS011;15949;55.656;37.422;2023-09-08T23:41:32;2.55;;;1.73;;
28802;SDS011;15949;55.656;37.422;2023-09-08T23:46:38;4.90;;;1.50;;
28802;SDS011;15949;55.656;37.422;2023-09-08T23:51:44;2.83;;;1.60;;
28802;SDS011;15949;55.656;37.422;2023-09-08T23:56:50;2.67;;;1.42;;
